createdAt,value
2023-02-11T00:06:43.754Z,102547.53
2023-02-11T00:09:23.593Z,102547.53
2023-02-11T00:11:58.510Z,102551.44
2023-02-11T00:14:27.845Z,102540.62
2023-02-11T00:16:59.128Z,102536.34
2023-02-11T00:19:31.431Z,102526.13
2023-02-11T00:22:06.005Z,102540.62
2023-02-11T00:24:45.762Z,102531.25
2023-02-11T00:27:24.578Z,102544.19
2023-02-11T00:48:05.334Z,102530.38
2023-02-11T00:50:34.247Z,102530.38
2023-02-11T00:53:02.253Z,102532.50
2023-02-11T00:55:31.297Z,102521.34
2023-02-11T00:58:00.195Z,102519.69
2023-02-11T01:00:29.453Z,102519.69
2023-02-11T01:02:58.248Z,102508.41
2023-02-11T01:05:27.344Z,102509.34
2023-02-11T01:23:40.567Z,102458.72
2023-02-11T01:26:17.572Z,102458.72
2023-02-11T01:28:50.938Z,102481.03
2023-02-11T01:31:19.530Z,102481.94
2023-02-11T01:33:52.289Z,102464.03
2023-02-11T01:36:26.283Z,102455.56
2023-02-11T01:38:54.410Z,102475.03
2023-02-11T01:41:25.692Z,102468.13
2023-02-11T02:08:46.586Z,102443.94
2023-02-11T02:11:15.304Z,102443.94
2023-02-11T02:13:43.775Z,102442.50
2023-02-11T02:16:14.044Z,102446.72
2023-02-11T02:18:51.565Z,102449.66
2023-02-11T02:21:38.570Z,102443.41
2023-02-11T02:24:40.494Z,102451.22
2023-02-11T02:46:27.785Z,102417.63
2023-02-11T02:48:57.748Z,102417.63
2023-02-11T02:51:50.513Z,102421.38
2023-02-11T02:54:18.621Z,102425.81
2023-02-11T02:57:05.575Z,102436.31
2023-02-11T03:00:08.073Z,102428.62
2023-02-11T03:14:33.264Z,102403.88
2023-02-11T03:17:07.520Z,102403.88
2023-02-11T03:19:39.728Z,102412.44
2023-02-11T03:22:13.881Z,102412.38
2023-02-11T03:24:42.273Z,102396.13
2023-02-11T03:38:47.441Z,102412.44
2023-02-11T03:41:19.196Z,102405.53
2023-02-11T03:43:52.275Z,102415.28
2023-02-11T03:46:25.525Z,102415.94
2023-02-11T03:48:57.844Z,102414.22
2023-02-11T03:51:29.813Z,102415.06
2023-02-11T03:54:01.925Z,102411.62
2023-02-11T03:56:35.684Z,102405.66
2023-02-11T04:16:49.039Z,102364.72
2023-02-11T04:19:17.900Z,102364.72
2023-02-11T04:21:47.556Z,102367.53
2023-02-11T04:24:15.869Z,102363.50
2023-02-11T04:26:44.864Z,102343.09
2023-02-11T04:29:12.891Z,102364.22
2023-02-11T04:31:41.032Z,102366.09
2023-02-11T04:51:59.986Z,102330.91
2023-02-11T04:54:29.342Z,102330.91
2023-02-11T04:57:08.924Z,102236.31
2023-02-11T04:59:42.691Z,102311.91
2023-02-11T05:02:18.610Z,102323.50
2023-02-11T05:04:55.718Z,102328.00
2023-02-11T05:07:24.197Z,102329.91
2023-02-11T05:09:56.534Z,102319.06
2023-02-11T05:12:31.238Z,102327.69
2023-02-11T05:15:06.142Z,102310.59
2023-02-11T05:17:40.208Z,102311.03
2023-02-11T05:20:10.909Z,102333.19
2023-02-11T05:22:44.865Z,102325.31
2023-02-11T05:41:21.695Z,102330.53
2023-02-11T05:43:53.950Z,102330.53
2023-02-11T05:46:24.811Z,102338.44
2023-02-11T05:48:53.666Z,102335.13
2023-02-11T05:51:22.942Z,102335.94
2023-02-11T05:53:51.554Z,102326.38
2023-02-11T05:56:20.534Z,102332.59
2023-02-11T06:22:04.408Z,102340.31
2023-02-11T06:24:58.531Z,102341.28
2023-02-11T06:27:23.258Z,102341.44
2023-02-11T06:29:52.975Z,102335.22
2023-02-11T06:32:42.219Z,102340.22
2023-02-11T06:35:11.896Z,102339.03
2023-02-11T06:37:41.728Z,102342.34
2023-02-11T06:40:10.998Z,102308.63
2023-02-11T06:42:39.780Z,102329.88
2023-02-11T06:45:13.563Z,102331.84
2023-02-11T06:47:42.472Z,102334.75
2023-02-11T06:50:14.468Z,102326.97
2023-02-11T06:52:43.440Z,102326.75
2023-02-11T06:55:11.320Z,102327.91
2023-02-11T06:57:39.369Z,102323.12
2023-02-11T07:00:14.532Z,102324.66
2023-02-11T07:20:47.912Z,102311.09
2023-02-11T07:23:16.639Z,102311.09
2023-02-11T07:25:45.431Z,102310.03
2023-02-11T07:28:15.135Z,102305.16
2023-02-11T07:30:43.416Z,102313.72
2023-02-11T07:33:11.405Z,102308.88
2023-02-11T07:35:41.693Z,102299.69
2023-02-11T07:38:15.097Z,102307.84
2023-02-11T07:58:59.779Z,102306.56
2023-02-11T08:01:28.960Z,102306.56
2023-02-11T08:03:59.767Z,102289.91
2023-02-11T08:06:30.546Z,102302.59
2023-02-11T08:09:03.462Z,102309.16
2023-02-11T08:11:31.481Z,102304.78
2023-02-11T08:14:00.048Z,102304.75
2023-02-11T08:36:52.337Z,102280.97
2023-02-11T08:39:22.736Z,102280.97
2023-02-11T08:41:54.067Z,102279.59
2023-02-11T08:44:23.431Z,102273.78
2023-02-11T08:46:53.133Z,102271.00
2023-02-11T08:49:22.291Z,102276.31
2023-02-11T08:51:51.439Z,102277.16
2023-02-11T09:12:11.246Z,102236.31
2023-02-11T09:14:44.183Z,102236.31
2023-02-11T09:17:18.929Z,102278.22
2023-02-11T09:20:09.830Z,102267.06
2023-02-11T09:22:38.719Z,102267.59
2023-02-11T09:25:15.033Z,102271.53
2023-02-11T09:27:49.088Z,102273.00
2023-02-11T09:30:25.113Z,102274.94
2023-02-11T09:32:59.533Z,102280.09
2023-02-11T09:54:32.221Z,102248.97
2023-02-11T09:57:01.033Z,102248.97
2023-02-11T09:59:29.119Z,102244.34
2023-02-11T10:02:04.933Z,102235.47
2023-02-11T10:05:21.737Z,102232.94
2023-02-11T10:27:21.512Z,102185.81
2023-02-11T10:29:55.775Z,102185.81
2023-02-11T10:32:35.919Z,102201.28
2023-02-11T10:35:16.034Z,102199.44
2023-02-11T10:37:45.100Z,102187.78
2023-02-11T10:40:23.366Z,102168.91
2023-02-11T10:45:51.598Z,102157.03
2023-02-11T10:48:42.885Z,102157.03
2023-02-11T10:51:18.832Z,102166.91
2023-02-11T10:54:13.868Z,102162.25
2023-02-11T10:56:59.026Z,102152.97
2023-02-11T10:59:31.547Z,102167.78
2023-02-11T11:24:34.609Z,102119.41
2023-02-11T11:27:05.417Z,102119.41
2023-02-11T11:29:44.192Z,102127.75
2023-02-11T11:32:22.485Z,102132.69
2023-02-11T11:34:56.070Z,102125.34
2023-02-11T11:37:29.593Z,102129.81
2023-02-11T11:40:16.123Z,102124.47
2023-02-11T11:42:44.890Z,102122.97
2023-02-11T11:56:53.783Z,102100.13
2023-02-11T11:59:58.931Z,102100.13
2023-02-11T12:02:44.165Z,102088.41
2023-02-11T12:05:36.098Z,102086.69
2023-02-11T12:08:23.197Z,102070.69
2023-02-11T12:11:32.875Z,102068.19
2023-02-11T12:29:39.241Z,102038.44
2023-02-11T12:32:30.132Z,102038.44
2023-02-11T12:35:24.050Z,102035.31
2023-02-11T12:38:10.914Z,102033.50
2023-02-11T12:41:39.656Z,102019.75
2023-02-11T12:44:26.073Z,102014.81
2023-02-11T13:05:55.328Z,101964.63
2023-02-11T13:08:48.951Z,101964.63
2023-02-11T13:11:55.480Z,101964.47
2023-02-11T13:14:35.665Z,101976.69
2023-02-11T13:34:43.498Z,101940.84
2023-02-11T13:37:23.234Z,101940.84
2023-02-11T13:40:23.159Z,101938.87
2023-02-11T13:43:02.769Z,101938.06
2023-02-11T13:45:46.528Z,101944.91
2023-02-11T13:48:20.415Z,101930.03
2023-02-11T14:07:48.012Z,101907.50
2023-02-11T14:10:41.854Z,101907.50
2023-02-11T14:13:51.858Z,101912.38
2023-02-11T14:16:37.042Z,101908.91
2023-02-11T14:19:06.930Z,101918.03
2023-02-11T14:36:28.741Z,101922.25
2023-02-11T14:39:42.140Z,101922.25
2023-02-11T14:42:28.491Z,101907.78
2023-02-11T14:45:11.343Z,101904.44
2023-02-11T14:48:19.745Z,101901.78
2023-02-11T14:51:03.849Z,101902.50
2023-02-11T14:53:37.015Z,101897.25
2023-02-11T15:17:32.962Z,101911.16
2023-02-11T15:20:03.751Z,101893.56
2023-02-11T15:22:41.349Z,101893.44
2023-02-11T15:25:18.566Z,101891.31
2023-02-11T15:28:02.783Z,101878.50
2023-02-11T15:30:39.689Z,101884.00
2023-02-11T15:33:26.080Z,101802.44
2023-02-11T15:36:06.864Z,101872.62
2023-02-11T15:38:35.396Z,101832.31
2023-02-11T16:00:50.619Z,101853.87
2023-02-11T16:03:32.580Z,101853.87
2023-02-11T16:06:23.118Z,101859.66
2023-02-11T16:09:05.275Z,101855.72
2023-02-11T16:11:53.857Z,101842.56
2023-02-11T16:14:39.518Z,101847.81
2023-02-11T16:35:34.578Z,101836.38
2023-02-11T16:38:04.422Z,101836.38
2023-02-11T16:40:33.454Z,101837.59
2023-02-11T16:43:02.952Z,101828.84
2023-02-11T16:45:32.540Z,101850.84
2023-02-11T16:48:02.286Z,101851.28
2023-02-11T16:50:34.320Z,101840.88
2023-02-11T16:53:09.720Z,101848.03
2023-02-11T17:10:58.612Z,101821.16
2023-02-11T17:13:30.107Z,101822.09
2023-02-11T17:15:58.866Z,101812.66
2023-02-11T17:18:27.663Z,101805.84
2023-02-11T17:20:56.591Z,101811.38
2023-02-11T17:23:25.707Z,101812.38
2023-02-11T17:25:57.968Z,101814.59
2023-02-11T17:28:26.915Z,101804.06
2023-02-11T17:48:59.261Z,101809.81
2023-02-11T17:51:36.981Z,101809.81
2023-02-11T17:54:27.113Z,101821.13
2023-02-11T17:56:59.470Z,101822.25
2023-02-11T17:59:40.430Z,101819.50
2023-02-11T18:02:16.485Z,101820.47
2023-02-11T18:04:48.804Z,101829.09
2023-02-11T18:07:31.540Z,101825.19
2023-02-11T18:10:14.368Z,101804.44
2023-02-11T18:12:55.376Z,101800.31
2023-02-11T18:38:49.550Z,101804.53
2023-02-11T18:41:19.745Z,101804.53
2023-02-11T18:43:48.421Z,101811.62
2023-02-11T18:46:17.683Z,101803.28
2023-02-11T18:48:47.269Z,101804.19
2023-02-11T18:51:20.565Z,101818.53
2023-02-11T18:53:49.501Z,101806.37
2023-02-11T19:14:26.353Z,101812.06
2023-02-11T19:16:58.108Z,101812.06
2023-02-11T19:19:30.701Z,101806.94
2023-02-11T19:22:02.533Z,101820.44
2023-02-11T19:24:32.123Z,101819.63
2023-02-11T19:27:03.091Z,101816.56
2023-02-11T19:29:33.550Z,101822.66
2023-02-11T19:32:03.868Z,101811.25
2023-02-11T19:50:14.947Z,101818.84
2023-02-11T19:52:43.921Z,101818.84
2023-02-11T19:55:12.951Z,101810.91
2023-02-11T19:57:41.964Z,101815.81
2023-02-11T20:00:11.440Z,101805.16
2023-02-11T20:02:40.998Z,101806.28
2023-02-11T20:05:10.164Z,101809.34
2023-02-11T20:25:27.448Z,101827.34
2023-02-11T20:27:56.421Z,101827.34
2023-02-11T20:30:25.336Z,101826.72
2023-02-11T20:32:54.336Z,101828.94
2023-02-11T20:35:25.629Z,101830.94
2023-02-11T20:37:54.381Z,101798.75
2023-02-11T20:40:23.318Z,101832.59
2023-02-11T21:03:57.867Z,101813.19
2023-02-11T21:06:30.961Z,101819.91
2023-02-11T21:08:59.950Z,101821.69
2023-02-11T21:11:28.603Z,101818.00
2023-02-11T21:13:57.557Z,101822.09
2023-02-11T21:16:26.042Z,101819.47
2023-02-11T21:18:55.614Z,101804.31
2023-02-11T21:21:25.035Z,101798.72
2023-02-11T21:39:04.187Z,101798.91
2023-02-11T21:41:33.473Z,101811.59
2023-02-11T21:44:02.205Z,101819.38
2023-02-11T21:46:31.339Z,101805.59
2023-02-11T21:49:00.558Z,101810.47
2023-02-11T21:51:29.171Z,101814.00
2023-02-11T21:53:59.954Z,101818.09
2023-02-11T22:14:33.565Z,101802.97
2023-02-11T22:17:02.631Z,101803.31
2023-02-11T22:19:35.271Z,101800.56
2023-02-11T22:22:03.595Z,101804.88
2023-02-11T22:24:31.608Z,101809.91
2023-02-11T22:27:00.535Z,101814.09
2023-02-11T22:29:29.673Z,101815.66
2023-02-11T22:54:36.803Z,101822.63
2023-02-11T22:57:05.663Z,101822.63
2023-02-11T22:59:33.654Z,101827.78
2023-02-11T23:02:01.821Z,101830.53
2023-02-11T23:04:30.893Z,101826.19
2023-02-11T23:07:00.780Z,101827.19
2023-02-11T23:09:31.881Z,101801.84
2023-02-11T23:31:58.934Z,101801.25
2023-02-11T23:34:33.324Z,101801.25
2023-02-11T23:37:01.794Z,101792.97
2023-02-11T23:39:36.195Z,101795.25
2023-02-11T23:42:08.712Z,101786.19
2023-02-11T23:44:40.329Z,101794.78
2023-02-11T23:47:10.481Z,101794.38
